sensor_id;sensor_type;location;lat;lon;timestamp;P1;durP1;ratioP1;P2;durP2;ratioP2
52456;SDS011;38369;52.840;7.082;2024-02-21T00:00:32;42.20;;;21.23;;
52456;SDS011;38369;52.840;7.082;2024-02-21T00:02:58;38.40;;;19.83;;
52456;SDS011;38369;52.840;7.082;2024-02-21T00:05:27;40.47;;;20.08;;
52456;SDS011;38369;52.840;7.082;2024-02-21T00:07:53;36.30;;;20.42;;
52456;SDS011;38369;52.840;7.082;2024-02-21T00:10:19;34.65;;;19.77;;
52456;SDS011;38369;52.840;7.082;2024-02-21T00:12:45;40.50;;;19.00;;
52456;SDS011;38369;52.840;7.082;2024-02-21T00:15:11;34.45;;;19.80;;
52456;SDS011;38369;52.840;7.082;2024-02-21T00:17:37;42.05;;;20.40;;
52456;SDS011;38369;52.840;7.082;2024-02-21T00:20:04;36.95;;;19.10;;
52456;SDS011;38369;52.840;7.082;2024-02-21T00:22:30;39.75;;;19.98;;
52456;SDS011;38369;52.840;7.082;2024-02-21T00:24:58;40.10;;;21.25;;
52456;SDS011;38369;52.840;7.082;2024-02-21T00:27:24;38.53;;;19.52;;
52456;SDS011;38369;52.840;7.082;2024-02-21T00:29:50;32.65;;;17.83;;
52456;SDS011;38369;52.840;7.082;2024-02-21T00:32:16;39.22;;;19.33;;
52456;SDS011;38369;52.840;7.082;2024-02-21T00:34:43;36.63;;;18.20;;
52456;SDS011;38369;52.840;7.082;2024-02-21T00:37:09;27.77;;;16.45;;
52456;SDS011;38369;52.840;7.082;2024-02-21T00:39:35;36.67;;;18.45;;
52456;SDS011;38369;52.840;7.082;2024-02-21T00:42:02;36.70;;;18.88;;
52456;SDS011;38369;52.840;7.082;2024-02-21T00:44:28;33.70;;;16.77;;
52456;SDS011;38369;52.840;7.082;2024-02-21T00:46:54;30.63;;;16.30;;
52456;SDS011;38369;52.840;7.082;2024-02-21T00:49:20;35.88;;;17.50;;
52456;SDS011;38369;52.840;7.082;2024-02-21T00:51:46;32.97;;;18.30;;
52456;SDS011;38369;52.840;7.082;2024-02-21T00:54:12;38.28;;;17.23;;
52456;SDS011;38369;52.840;7.082;2024-02-21T00:56:39;35.33;;;16.90;;
52456;SDS011;38369;52.840;7.082;2024-02-21T00:59:05;25.13;;;16.30;;
52456;SDS011;38369;52.840;7.082;2024-02-21T01:01:31;32.47;;;15.70;;
52456;SDS011;38369;52.840;7.082;2024-02-21T01:03:57;31.88;;;16.00;;
52456;SDS011;38369;52.840;7.082;2024-02-21T01:06:23;28.23;;;15.70;;
52456;SDS011;38369;52.840;7.082;2024-02-21T01:08:49;42.88;;;16.50;;
52456;SDS011;38369;52.840;7.082;2024-02-21T01:11:15;26.55;;;15.18;;
52456;SDS011;38369;52.840;7.082;2024-02-21T01:13:41;31.20;;;16.33;;
52456;SDS011;38369;52.840;7.082;2024-02-21T01:16:07;27.30;;;15.05;;
52456;SDS011;38369;52.840;7.082;2024-02-21T01:18:34;29.35;;;14.93;;
52456;SDS011;38369;52.840;7.082;2024-02-21T01:21:00;33.30;;;16.13;;
52456;SDS011;38369;52.840;7.082;2024-02-21T01:23:26;29.40;;;16.08;;
52456;SDS011;38369;52.840;7.082;2024-02-21T01:25:52;37.42;;;16.55;;
52456;SDS011;38369;52.840;7.082;2024-02-21T01:28:20;28.95;;;16.05;;
52456;SDS011;38369;52.840;7.082;2024-02-21T01:30:46;33.35;;;17.45;;
52456;SDS011;38369;52.840;7.082;2024-02-21T01:33:12;27.65;;;15.38;;
52456;SDS011;38369;52.840;7.082;2024-02-21T01:35:38;34.72;;;17.50;;
52456;SDS011;38369;52.840;7.082;2024-02-21T01:38:04;29.30;;;15.77;;
52456;SDS011;38369;52.840;7.082;2024-02-21T01:40:30;29.13;;;16.30;;
52456;SDS011;38369;52.840;7.082;2024-02-21T01:42:56;31.33;;;16.55;;
52456;SDS011;38369;52.840;7.082;2024-02-21T01:45:22;33.70;;;16.52;;
52456;SDS011;38369;52.840;7.082;2024-02-21T01:47:48;36.83;;;17.38;;
52456;SDS011;38369;52.840;7.082;2024-02-21T01:50:15;35.35;;;17.15;;
52456;SDS011;38369;52.840;7.082;2024-02-21T01:52:41;34.55;;;16.65;;
52456;SDS011;38369;52.840;7.082;2024-02-21T01:55:08;32.53;;;15.70;;
52456;SDS011;38369;52.840;7.082;2024-02-21T01:57:35;30.42;;;14.98;;
52456;SDS011;38369;52.840;7.082;2024-02-21T02:00:02;33.08;;;16.20;;
52456;SDS011;38369;52.840;7.082;2024-02-21T02:02:29;32.10;;;16.13;;
52456;SDS011;38369;52.840;7.082;2024-02-21T02:04:55;26.50;;;16.00;;
52456;SDS011;38369;52.840;7.082;2024-02-21T02:07:22;30.58;;;16.17;;
52456;SDS011;38369;52.840;7.082;2024-02-21T02:09:48;32.83;;;16.50;;
52456;SDS011;38369;52.840;7.082;2024-02-21T02:12:14;27.23;;;15.95;;
52456;SDS011;38369;52.840;7.082;2024-02-21T02:14:40;29.48;;;15.30;;
52456;SDS011;38369;52.840;7.082;2024-02-21T02:17:06;26.75;;;15.13;;
52456;SDS011;38369;52.840;7.082;2024-02-21T02:19:34;32.05;;;14.80;;
52456;SDS011;38369;52.840;7.082;2024-02-21T02:22:02;36.20;;;16.50;;
52456;SDS011;38369;52.840;7.082;2024-02-21T02:24:32;31.52;;;16.20;;
52456;SDS011;38369;52.840;7.082;2024-02-21T02:26:58;28.42;;;15.77;;
52456;SDS011;38369;52.840;7.082;2024-02-21T02:29:24;28.42;;;14.75;;
52456;SDS011;38369;52.840;7.082;2024-02-21T02:31:50;39.10;;;15.57;;
52456;SDS011;38369;52.840;7.082;2024-02-21T02:34:16;36.95;;;16.13;;
52456;SDS011;38369;52.840;7.082;2024-02-21T02:36:42;34.20;;;15.93;;
52456;SDS011;38369;52.840;7.082;2024-02-21T02:39:08;35.80;;;17.65;;
52456;SDS011;38369;52.840;7.082;2024-02-21T02:41:35;33.72;;;17.48;;
52456;SDS011;38369;52.840;7.082;2024-02-21T02:44:01;26.88;;;15.63;;
52456;SDS011;38369;52.840;7.082;2024-02-21T02:46:27;34.30;;;17.27;;
52456;SDS011;38369;52.840;7.082;2024-02-21T02:48:53;34.78;;;15.98;;
52456;SDS011;38369;52.840;7.082;2024-02-21T02:51:19;33.30;;;17.65;;
52456;SDS011;38369;52.840;7.082;2024-02-21T02:53:45;33.50;;;15.55;;
52456;SDS011;38369;52.840;7.082;2024-02-21T02:56:15;35.88;;;16.95;;
52456;SDS011;38369;52.840;7.082;2024-02-21T02:58:42;41.22;;;18.88;;
52456;SDS011;38369;52.840;7.082;2024-02-21T03:01:08;38.95;;;18.40;;
52456;SDS011;38369;52.840;7.082;2024-02-21T03:03:34;34.65;;;17.63;;
52456;SDS011;38369;52.840;7.082;2024-02-21T03:06:00;40.22;;;17.77;;
52456;SDS011;38369;52.840;7.082;2024-02-21T03:08:26;48.25;;;19.00;;
52456;SDS011;38369;52.840;7.082;2024-02-21T03:10:52;31.52;;;16.33;;
52456;SDS011;38369;52.840;7.082;2024-02-21T03:13:18;26.35;;;15.98;;
52456;SDS011;38369;52.840;7.082;2024-02-21T03:15:44;25.25;;;16.27;;
52456;SDS011;38369;52.840;7.082;2024-02-21T03:18:10;30.38;;;15.38;;
52456;SDS011;38369;52.840;7.082;2024-02-21T03:20:36;28.08;;;15.02;;
52456;SDS011;38369;52.840;7.082;2024-02-21T03:23:02;34.42;;;17.23;;
52456;SDS011;38369;52.840;7.082;2024-02-21T03:25:28;32.35;;;15.30;;
52456;SDS011;38369;52.840;7.082;2024-02-21T03:27:54;26.90;;;14.95;;
52456;SDS011;38369;52.840;7.082;2024-02-21T03:30:20;31.42;;;17.65;;
52456;SDS011;38369;52.840;7.082;2024-02-21T03:32:45;31.92;;;16.65;;
52456;SDS011;38369;52.840;7.082;2024-02-21T03:35:11;34.88;;;17.80;;
52456;SDS011;38369;52.840;7.082;2024-02-21T03:37:37;25.75;;;16.33;;
52456;SDS011;38369;52.840;7.082;2024-02-21T03:40:06;36.78;;;18.02;;
52456;SDS011;38369;52.840;7.082;2024-02-21T03:42:32;35.10;;;17.10;;
52456;SDS011;38369;52.840;7.082;2024-02-21T03:44:58;31.27;;;16.48;;
52456;SDS011;38369;52.840;7.082;2024-02-21T03:47:24;27.83;;;15.80;;
52456;SDS011;38369;52.840;7.082;2024-02-21T03:49:50;26.00;;;14.98;;
52456;SDS011;38369;52.840;7.082;2024-02-21T03:52:16;42.88;;;17.33;;
52456;SDS011;38369;52.840;7.082;2024-02-21T03:54:42;41.83;;;19.05;;
52456;SDS011;38369;52.840;7.082;2024-02-21T03:57:08;41.05;;;16.05;;
52456;SDS011;38369;52.840;7.082;2024-02-21T03:59:34;35.40;;;16.70;;
52456;SDS011;38369;52.840;7.082;2024-02-21T04:02:00;37.45;;;17.77;;
52456;SDS011;38369;52.840;7.082;2024-02-21T04:04:29;37.63;;;16.10;;
52456;SDS011;38369;52.840;7.082;2024-02-21T04:06:55;41.00;;;18.35;;
52456;SDS011;38369;52.840;7.082;2024-02-21T04:09:21;39.85;;;17.80;;
52456;SDS011;38369;52.840;7.082;2024-02-21T04:11:47;36.13;;;18.17;;
52456;SDS011;38369;52.840;7.082;2024-02-21T04:14:13;36.53;;;17.35;;
52456;SDS011;38369;52.840;7.082;2024-02-21T04:16:39;30.73;;;16.85;;
52456;SDS011;38369;52.840;7.082;2024-02-21T04:19:05;37.05;;;17.70;;
52456;SDS011;38369;52.840;7.082;2024-02-21T04:21:31;39.17;;;18.30;;
52456;SDS011;38369;52.840;7.082;2024-02-21T04:23:57;41.42;;;18.95;;
52456;SDS011;38369;52.840;7.082;2024-02-21T04:26:23;46.42;;;18.23;;
52456;SDS011;38369;52.840;7.082;2024-02-21T04:28:50;40.75;;;17.92;;
52456;SDS011;38369;52.840;7.082;2024-02-21T04:31:16;41.60;;;16.42;;
52456;SDS011;38369;52.840;7.082;2024-02-21T04:33:42;33.85;;;17.88;;
52456;SDS011;38369;52.840;7.082;2024-02-21T04:36:08;39.30;;;17.20;;
52456;SDS011;38369;52.840;7.082;2024-02-21T04:38:34;43.60;;;18.50;;
52456;SDS011;38369;52.840;7.082;2024-02-21T04:41:00;37.67;;;17.65;;
52456;SDS011;38369;52.840;7.082;2024-02-21T04:43:26;33.70;;;16.67;;
52456;SDS011;38369;52.840;7.082;2024-02-21T04:45:52;42.78;;;18.42;;
52456;SDS011;38369;52.840;7.082;2024-02-21T04:48:18;38.95;;;17.60;;
52456;SDS011;38369;52.840;7.082;2024-02-21T04:50:45;40.72;;;17.55;;
52456;SDS011;38369;52.840;7.082;2024-02-21T04:53:11;37.08;;;17.20;;
52456;SDS011;38369;52.840;7.082;2024-02-21T04:55:37;36.97;;;17.42;;
52456;SDS011;38369;52.840;7.082;2024-02-21T04:58:05;39.20;;;17.00;;
52456;SDS011;38369;52.840;7.082;2024-02-21T05:00:31;34.58;;;16.27;;
52456;SDS011;38369;52.840;7.082;2024-02-21T05:02:57;44.25;;;18.42;;
52456;SDS011;38369;52.840;7.082;2024-02-21T05:05:23;51.72;;;19.00;;
52456;SDS011;38369;52.840;7.082;2024-02-21T05:07:49;39.38;;;18.30;;
52456;SDS011;38369;52.840;7.082;2024-02-21T05:10:15;36.05;;;17.17;;
52456;SDS011;38369;52.840;7.082;2024-02-21T05:12:42;44.55;;;18.65;;
52456;SDS011;38369;52.840;7.082;2024-02-21T05:15:08;45.67;;;18.23;;
52456;SDS011;38369;52.840;7.082;2024-02-21T05:17:35;35.05;;;17.38;;
52456;SDS011;38369;52.840;7.082;2024-02-21T05:20:01;39.70;;;15.90;;
52456;SDS011;38369;52.840;7.082;2024-02-21T05:22:27;38.90;;;17.65;;
52456;SDS011;38369;52.840;7.082;2024-02-21T05:24:53;39.20;;;17.75;;
52456;SDS011;38369;52.840;7.082;2024-02-21T05:27:19;40.58;;;17.67;;
52456;SDS011;38369;52.840;7.082;2024-02-21T05:29:45;43.58;;;18.23;;
52456;SDS011;38369;52.840;7.082;2024-02-21T05:32:11;43.72;;;18.02;;
52456;SDS011;38369;52.840;7.082;2024-02-21T05:34:37;34.47;;;17.08;;
52456;SDS011;38369;52.840;7.082;2024-02-21T05:37:03;36.60;;;16.27;;
52456;SDS011;38369;52.840;7.082;2024-02-21T05:39:29;36.60;;;17.00;;
52456;SDS011;38369;52.840;7.082;2024-02-21T05:41:55;37.30;;;16.50;;
52456;SDS011;38369;52.840;7.082;2024-02-21T05:44:21;47.55;;;16.02;;
52456;SDS011;38369;52.840;7.082;2024-02-21T05:46:47;41.78;;;15.90;;
52456;SDS011;38369;52.840;7.082;2024-02-21T05:49:13;35.88;;;16.88;;
52456;SDS011;38369;52.840;7.082;2024-02-21T05:51:39;46.70;;;16.20;;
52456;SDS011;38369;52.840;7.082;2024-02-21T05:54:05;44.22;;;18.05;;
52456;SDS011;38369;52.840;7.082;2024-02-21T05:56:32;34.58;;;15.63;;
52456;SDS011;38369;52.840;7.082;2024-02-21T05:58:58;42.60;;;16.48;;
52456;SDS011;38369;52.840;7.082;2024-02-21T06:01:25;41.58;;;17.13;;
52456;SDS011;38369;52.840;7.082;2024-02-21T06:03:51;33.75;;;15.32;;
52456;SDS011;38369;52.840;7.082;2024-02-21T06:06:17;39.60;;;15.82;;
52456;SDS011;38369;52.840;7.082;2024-02-21T06:08:43;35.45;;;15.63;;
52456;SDS011;38369;52.840;7.082;2024-02-21T06:11:09;32.38;;;16.48;;
52456;SDS011;38369;52.840;7.082;2024-02-21T06:13:37;40.33;;;16.88;;
52456;SDS011;38369;52.840;7.082;2024-02-21T06:16:05;36.93;;;17.10;;
52456;SDS011;38369;52.840;7.082;2024-02-21T06:18:31;34.83;;;18.73;;
52456;SDS011;38369;52.840;7.082;2024-02-21T06:20:57;44.20;;;18.15;;
52456;SDS011;38369;52.840;7.082;2024-02-21T06:23:23;44.17;;;17.80;;
52456;SDS011;38369;52.840;7.082;2024-02-21T06:25:49;40.13;;;17.90;;
52456;SDS011;38369;52.840;7.082;2024-02-21T06:28:15;44.90;;;18.25;;
52456;SDS011;38369;52.840;7.082;2024-02-21T06:30:41;38.67;;;18.45;;
52456;SDS011;38369;52.840;7.082;2024-02-21T06:33:07;37.95;;;18.90;;
52456;SDS011;38369;52.840;7.082;2024-02-21T06:35:33;36.90;;;18.25;;
52456;SDS011;38369;52.840;7.082;2024-02-21T06:37:59;40.63;;;19.63;;
52456;SDS011;38369;52.840;7.082;2024-02-21T06:40:25;43.38;;;21.17;;
52456;SDS011;38369;52.840;7.082;2024-02-21T06:42:51;36.60;;;19.23;;
52456;SDS011;38369;52.840;7.082;2024-02-21T06:45:17;36.78;;;18.63;;
52456;SDS011;38369;52.840;7.082;2024-02-21T06:47:43;41.35;;;19.33;;
52456;SDS011;38369;52.840;7.082;2024-02-21T06:50:09;43.65;;;19.90;;
52456;SDS011;38369;52.840;7.082;2024-02-21T06:52:36;43.90;;;20.30;;
52456;SDS011;38369;52.840;7.082;2024-02-21T06:55:02;49.65;;;20.13;;
52456;SDS011;38369;52.840;7.082;2024-02-21T06:57:28;35.05;;;19.02;;
52456;SDS011;38369;52.840;7.082;2024-02-21T06:59:54;44.22;;;19.88;;
52456;SDS011;38369;52.840;7.082;2024-02-21T07:02:20;43.67;;;19.40;;
52456;SDS011;38369;52.840;7.082;2024-02-21T07:04:46;49.45;;;18.20;;
52456;SDS011;38369;52.840;7.082;2024-02-21T07:07:13;39.20;;;21.45;;
52456;SDS011;38369;52.840;7.082;2024-02-21T07:09:39;39.08;;;17.75;;
52456;SDS011;38369;52.840;7.082;2024-02-21T07:12:05;39.00;;;20.05;;
52456;SDS011;38369;52.840;7.082;2024-02-21T07:14:35;41.88;;;18.65;;
52456;SDS011;38369;52.840;7.082;2024-02-21T07:17:01;41.50;;;19.02;;
52456;SDS011;38369;52.840;7.082;2024-02-21T07:19:27;45.05;;;19.33;;
52456;SDS011;38369;52.840;7.082;2024-02-21T07:21:53;42.17;;;17.70;;
52456;SDS011;38369;52.840;7.082;2024-02-21T07:24:19;39.83;;;18.05;;
52456;SDS011;38369;52.840;7.082;2024-02-21T07:26:45;44.55;;;18.27;;
52456;SDS011;38369;52.840;7.082;2024-02-21T07:29:11;32.28;;;17.90;;
52456;SDS011;38369;52.840;7.082;2024-02-21T07:31:41;40.42;;;18.55;;
52456;SDS011;38369;52.840;7.082;2024-02-21T07:34:07;36.83;;;18.87;;
52456;SDS011;38369;52.840;7.082;2024-02-21T07:36:33;35.45;;;18.17;;
52456;SDS011;38369;52.840;7.082;2024-02-21T07:38:59;36.70;;;17.13;;
52456;SDS011;38369;52.840;7.082;2024-02-21T07:41:25;40.78;;;19.58;;
52456;SDS011;38369;52.840;7.082;2024-02-21T07:43:51;40.50;;;18.67;;
52456;SDS011;38369;52.840;7.082;2024-02-21T07:46:18;42.17;;;20.10;;
52456;SDS011;38369;52.840;7.082;2024-02-21T07:48:48;39.38;;;20.35;;
52456;SDS011;38369;52.840;7.082;2024-02-21T07:51:14;44.35;;;21.38;;
52456;SDS011;38369;52.840;7.082;2024-02-21T07:53:43;58.72;;;23.70;;
52456;SDS011;38369;52.840;7.082;2024-02-21T07:56:13;41.47;;;21.88;;
52456;SDS011;38369;52.840;7.082;2024-02-21T07:58:39;46.35;;;24.40;;
52456;SDS011;38369;52.840;7.082;2024-02-21T08:01:05;45.10;;;23.45;;
52456;SDS011;38369;52.840;7.082;2024-02-21T08:03:31;41.55;;;22.02;;
52456;SDS011;38369;52.840;7.082;2024-02-21T08:05:57;43.88;;;21.55;;
52456;SDS011;38369;52.840;7.082;2024-02-21T08:08:23;40.50;;;22.30;;
52456;SDS011;38369;52.840;7.082;2024-02-21T08:10:50;38.67;;;22.38;;
52456;SDS011;38369;52.840;7.082;2024-02-21T08:13:16;37.47;;;21.98;;
52456;SDS011;38369;52.840;7.082;2024-02-21T08:15:42;45.42;;;23.23;;
52456;SDS011;38369;52.840;7.082;2024-02-21T08:18:08;37.10;;;22.27;;
52456;SDS011;38369;52.840;7.082;2024-02-21T08:20:34;39.75;;;22.15;;
52456;SDS011;38369;52.840;7.082;2024-02-21T08:23:00;37.42;;;20.83;;
52456;SDS011;38369;52.840;7.082;2024-02-21T08:25:26;43.53;;;22.17;;
52456;SDS011;38369;52.840;7.082;2024-02-21T08:27:57;40.08;;;22.20;;
52456;SDS011;38369;52.840;7.082;2024-02-21T08:30:23;38.90;;;20.95;;
52456;SDS011;38369;52.840;7.082;2024-02-21T08:32:49;35.72;;;22.00;;
52456;SDS011;38369;52.840;7.082;2024-02-21T08:35:15;33.60;;;20.08;;
52456;SDS011;38369;52.840;7.082;2024-02-21T08:37:43;34.08;;;21.08;;
52456;SDS011;38369;52.840;7.082;2024-02-21T08:40:12;38.88;;;20.35;;
52456;SDS011;38369;52.840;7.082;2024-02-21T08:42:41;33.47;;;20.98;;
52456;SDS011;38369;52.840;7.082;2024-02-21T08:45:07;37.50;;;21.85;;
52456;SDS011;38369;52.840;7.082;2024-02-21T08:47:33;35.58;;;22.60;;
52456;SDS011;38369;52.840;7.082;2024-02-21T08:50:01;32.28;;;20.98;;
52456;SDS011;38369;52.840;7.082;2024-02-21T08:52:27;38.55;;;21.38;;
52456;SDS011;38369;52.840;7.082;2024-02-21T08:54:53;39.35;;;22.20;;
52456;SDS011;38369;52.840;7.082;2024-02-21T08:57:19;35.17;;;20.40;;
52456;SDS011;38369;52.840;7.082;2024-02-21T08:59:45;35.00;;;20.45;;
52456;SDS011;38369;52.840;7.082;2024-02-21T09:02:12;37.83;;;20.45;;
52456;SDS011;38369;52.840;7.082;2024-02-21T09:04:38;32.50;;;20.00;;
52456;SDS011;38369;52.840;7.082;2024-02-21T09:07:04;40.75;;;20.30;;
52456;SDS011;38369;52.840;7.082;2024-02-21T09:09:30;32.97;;;19.38;;
52456;SDS011;38369;52.840;7.082;2024-02-21T09:11:58;35.42;;;20.48;;
52456;SDS011;38369;52.840;7.082;2024-02-21T09:14:30;38.33;;;20.60;;
52456;SDS011;38369;52.840;7.082;2024-02-21T09:16:56;32.15;;;19.35;;
52456;SDS011;38369;52.840;7.082;2024-02-21T09:19:22;31.55;;;19.52;;
52456;SDS011;38369;52.840;7.082;2024-02-21T09:21:48;37.92;;;20.45;;
52456;SDS011;38369;52.840;7.082;2024-02-21T09:24:14;29.00;;;19.05;;
52456;SDS011;38369;52.840;7.082;2024-02-21T09:26:40;32.90;;;19.23;;
52456;SDS011;38369;52.840;7.082;2024-02-21T09:29:06;33.90;;;19.48;;
52456;SDS011;38369;52.840;7.082;2024-02-21T09:31:33;33.60;;;18.27;;
52456;SDS011;38369;52.840;7.082;2024-02-21T09:33:59;30.05;;;17.42;;
52456;SDS011;38369;52.840;7.082;2024-02-21T09:36:25;31.20;;;18.08;;
52456;SDS011;38369;52.840;7.082;2024-02-21T09:38:51;27.60;;;17.60;;
52456;SDS011;38369;52.840;7.082;2024-02-21T09:41:17;35.75;;;17.75;;
52456;SDS011;38369;52.840;7.082;2024-02-21T09:43:44;27.65;;;16.35;;
52456;SDS011;38369;52.840;7.082;2024-02-21T09:46:15;28.92;;;17.08;;
52456;SDS011;38369;52.840;7.082;2024-02-21T09:51:15;26.40;;;18.15;;
52456;SDS011;38369;52.840;7.082;2024-02-21T09:53:41;30.65;;;17.52;;
52456;SDS011;38369;52.840;7.082;2024-02-21T09:56:07;25.65;;;16.63;;
52456;SDS011;38369;52.840;7.082;2024-02-21T09:58:34;31.33;;;16.30;;
52456;SDS011;38369;52.840;7.082;2024-02-21T10:01:00;24.63;;;15.27;;
52456;SDS011;38369;52.840;7.082;2024-02-21T10:03:26;28.83;;;14.93;;
52456;SDS011;38369;52.840;7.082;2024-02-21T10:05:52;30.48;;;16.02;;
52456;SDS011;38369;52.840;7.082;2024-02-21T10:08:19;33.55;;;15.98;;
52456;SDS011;38369;52.840;7.082;2024-02-21T10:10:45;25.20;;;15.82;;
52456;SDS011;38369;52.840;7.082;2024-02-21T10:13:27;27.40;;;15.07;;
52456;SDS011;38369;52.840;7.082;2024-02-21T10:16:06;34.03;;;16.58;;
52456;SDS011;38369;52.840;7.082;2024-02-21T10:18:35;28.45;;;15.80;;
52456;SDS011;38369;52.840;7.082;2024-02-21T10:21:07;30.98;;;16.63;;
52456;SDS011;38369;52.840;7.082;2024-02-21T10:23:49;26.30;;;15.38;;
52456;SDS011;38369;52.840;7.082;2024-02-21T10:26:16;26.17;;;14.95;;
52456;SDS011;38369;52.840;7.082;2024-02-21T10:28:42;25.08;;;14.20;;
52456;SDS011;38369;52.840;7.082;2024-02-21T10:31:10;28.17;;;15.23;;
52456;SDS011;38369;52.840;7.082;2024-02-21T10:33:37;30.20;;;14.50;;
52456;SDS011;38369;52.840;7.082;2024-02-21T10:36:06;29.70;;;14.02;;
52456;SDS011;38369;52.840;7.082;2024-02-21T10:38:33;23.75;;;14.35;;
52456;SDS011;38369;52.840;7.082;2024-02-21T10:40:59;26.08;;;14.98;;
52456;SDS011;38369;52.840;7.082;2024-02-21T10:43:28;29.98;;;13.35;;
52456;SDS011;38369;52.840;7.082;2024-02-21T10:45:56;28.48;;;15.50;;
52456;SDS011;38369;52.840;7.082;2024-02-21T10:48:25;32.67;;;15.18;;
52456;SDS011;38369;52.840;7.082;2024-02-21T10:51:02;26.45;;;13.50;;
52456;SDS011;38369;52.840;7.082;2024-02-21T10:53:35;20.73;;;13.52;;
52456;SDS011;38369;52.840;7.082;2024-02-21T10:58:42;23.70;;;12.77;;
52456;SDS011;38369;52.840;7.082;2024-02-21T11:01:09;20.52;;;12.02;;
52456;SDS011;38369;52.840;7.082;2024-02-21T11:03:37;18.70;;;10.95;;
52456;SDS011;38369;52.840;7.082;2024-02-21T11:06:04;21.98;;;11.23;;
52456;SDS011;38369;52.840;7.082;2024-02-21T11:08:30;20.17;;;12.40;;
52456;SDS011;38369;52.840;7.082;2024-02-21T11:10:57;24.05;;;12.25;;
52456;SDS011;38369;52.840;7.082;2024-02-21T11:13:30;19.13;;;11.63;;
52456;SDS011;38369;52.840;7.082;2024-02-21T11:16:10;21.17;;;11.60;;
52456;SDS011;38369;52.840;7.082;2024-02-21T11:18:40;20.90;;;11.65;;
52456;SDS011;38369;52.840;7.082;2024-02-21T11:21:06;18.77;;;12.55;;
52456;SDS011;38369;52.840;7.082;2024-02-21T11:23:32;21.17;;;11.18;;
52456;SDS011;38369;52.840;7.082;2024-02-21T11:26:05;20.55;;;13.30;;
52456;SDS011;38369;52.840;7.082;2024-02-21T11:28:31;26.80;;;11.95;;
52456;SDS011;38369;52.840;7.082;2024-02-21T11:33:53;17.63;;;11.68;;
52456;SDS011;38369;52.840;7.082;2024-02-21T11:36:25;18.50;;;9.88;;
52456;SDS011;38369;52.840;7.082;2024-02-21T11:38:52;23.30;;;10.60;;
52456;SDS011;38369;52.840;7.082;2024-02-21T11:41:18;20.38;;;10.27;;
52456;SDS011;38369;52.840;7.082;2024-02-21T11:43:46;18.50;;;10.68;;
52456;SDS011;38369;52.840;7.082;2024-02-21T11:46:13;22.38;;;11.68;;
52456;SDS011;38369;52.840;7.082;2024-02-21T11:48:40;24.65;;;10.85;;
52456;SDS011;38369;52.840;7.082;2024-02-21T11:51:09;22.02;;;11.30;;
52456;SDS011;38369;52.840;7.082;2024-02-21T11:53:36;21.67;;;10.85;;
52456;SDS011;38369;52.840;7.082;2024-02-21T11:56:02;19.65;;;10.65;;
52456;SDS011;38369;52.840;7.082;2024-02-21T11:58:28;20.75;;;10.63;;
52456;SDS011;38369;52.840;7.082;2024-02-21T12:00:55;20.77;;;11.18;;
52456;SDS011;38369;52.840;7.082;2024-02-21T12:03:21;15.75;;;10.38;;
52456;SDS011;38369;52.840;7.082;2024-02-21T12:05:47;16.50;;;10.38;;
52456;SDS011;38369;52.840;7.082;2024-02-21T12:08:14;14.68;;;9.82;;
52456;SDS011;38369;52.840;7.082;2024-02-21T12:10:41;15.27;;;8.50;;
52456;SDS011;38369;52.840;7.082;2024-02-21T12:13:09;13.43;;;8.07;;
52456;SDS011;38369;52.840;7.082;2024-02-21T12:15:35;14.65;;;8.57;;
52456;SDS011;38369;52.840;7.082;2024-02-21T12:18:01;13.88;;;8.45;;
52456;SDS011;38369;52.840;7.082;2024-02-21T12:20:27;15.30;;;8.38;;
52456;SDS011;38369;52.840;7.082;2024-02-21T12:22:53;20.05;;;9.25;;
52456;SDS011;38369;52.840;7.082;2024-02-21T12:25:20;17.35;;;8.55;;
52456;SDS011;38369;52.840;7.082;2024-02-21T12:27:52;13.75;;;8.95;;
52456;SDS011;38369;52.840;7.082;2024-02-21T12:30:18;14.50;;;7.82;;
52456;SDS011;38369;52.840;7.082;2024-02-21T12:32:47;14.32;;;8.32;;
52456;SDS011;38369;52.840;7.082;2024-02-21T12:35:13;16.92;;;8.70;;
52456;SDS011;38369;52.840;7.082;2024-02-21T12:37:40;12.77;;;7.82;;
52456;SDS011;38369;52.840;7.082;2024-02-21T12:40:06;11.23;;;7.53;;
52456;SDS011;38369;52.840;7.082;2024-02-21T12:42:33;12.68;;;7.80;;
52456;SDS011;38369;52.840;7.082;2024-02-21T12:44:59;9.13;;;6.53;;
52456;SDS011;38369;52.840;7.082;2024-02-21T12:47:25;9.73;;;6.65;;
52456;SDS011;38369;52.840;7.082;2024-02-21T12:49:54;9.50;;;6.55;;
52456;SDS011;38369;52.840;7.082;2024-02-21T12:52:21;12.02;;;6.72;;
52456;SDS011;38369;52.840;7.082;2024-02-21T12:54:47;8.57;;;5.85;;
52456;SDS011;38369;52.840;7.082;2024-02-21T12:57:15;10.38;;;4.97;;
52456;SDS011;38369;52.840;7.082;2024-02-21T12:59:41;11.27;;;5.00;;
52456;SDS011;38369;52.840;7.082;2024-02-21T13:02:07;10.15;;;5.40;;
52456;SDS011;38369;52.840;7.082;2024-02-21T13:04:33;9.32;;;5.25;;
52456;SDS011;38369;52.840;7.082;2024-02-21T13:06:59;7.70;;;4.78;;
52456;SDS011;38369;52.840;7.082;2024-02-21T13:09:25;5.97;;;4.28;;
52456;SDS011;38369;52.840;7.082;2024-02-21T13:11:51;6.28;;;3.90;;
52456;SDS011;38369;52.840;7.082;2024-02-21T13:14:18;8.00;;;4.60;;
52456;SDS011;38369;52.840;7.082;2024-02-21T13:16:44;5.82;;;4.45;;
52456;SDS011;38369;52.840;7.082;2024-02-21T13:19:10;8.77;;;5.47;;
52456;SDS011;38369;52.840;7.082;2024-02-21T13:21:36;8.02;;;5.18;;
52456;SDS011;38369;52.840;7.082;2024-02-21T13:24:02;11.02;;;5.45;;
52456;SDS011;38369;52.840;7.082;2024-02-21T13:26:28;9.50;;;5.43;;
52456;SDS011;38369;52.840;7.082;2024-02-21T13:28:54;7.95;;;6.03;;
52456;SDS011;38369;52.840;7.082;2024-02-21T13:31:20;8.90;;;5.50;;
52456;SDS011;38369;52.840;7.082;2024-02-21T13:33:46;11.88;;;6.30;;
52456;SDS011;38369;52.840;7.082;2024-02-21T13:36:12;11.15;;;5.50;;
52456;SDS011;38369;52.840;7.082;2024-02-21T13:38:38;14.60;;;6.10;;
52456;SDS011;38369;52.840;7.082;2024-02-21T13:41:05;15.65;;;6.80;;
52456;SDS011;38369;52.840;7.082;2024-02-21T13:43:34;8.83;;;5.77;;
52456;SDS011;38369;52.840;7.082;2024-02-21T13:46:00;9.95;;;5.82;;
52456;SDS011;38369;52.840;7.082;2024-02-21T13:48:34;9.10;;;6.00;;
52456;SDS011;38369;52.840;7.082;2024-02-21T13:51:00;12.02;;;5.63;;
52456;SDS011;38369;52.840;7.082;2024-02-21T13:53:27;10.40;;;6.07;;
52456;SDS011;38369;52.840;7.082;2024-02-21T13:55:53;10.95;;;7.55;;
52456;SDS011;38369;52.840;7.082;2024-02-21T13:58:19;13.77;;;7.70;;
52456;SDS011;38369;52.840;7.082;2024-02-21T14:00:46;13.45;;;6.90;;
52456;SDS011;38369;52.840;7.082;2024-02-21T14:03:12;11.98;;;7.25;;
52456;SDS011;38369;52.840;7.082;2024-02-21T14:05:38;12.73;;;7.63;;
52456;SDS011;38369;52.840;7.082;2024-02-21T14:08:06;17.48;;;8.32;;
52456;SDS011;38369;52.840;7.082;2024-02-21T14:10:33;11.60;;;6.90;;
52456;SDS011;38369;52.840;7.082;2024-02-21T14:12:59;15.52;;;6.25;;
52456;SDS011;38369;52.840;7.082;2024-02-21T14:15:25;12.00;;;6.68;;
52456;SDS011;38369;52.840;7.082;2024-02-21T14:17:51;17.25;;;7.18;;
52456;SDS011;38369;52.840;7.082;2024-02-21T14:20:17;14.95;;;6.97;;
52456;SDS011;38369;52.840;7.082;2024-02-21T14:22:43;14.07;;;6.80;;
52456;SDS011;38369;52.840;7.082;2024-02-21T14:25:09;15.90;;;7.20;;
52456;SDS011;38369;52.840;7.082;2024-02-21T14:27:35;13.93;;;6.18;;